NKS1455 KMCO-KLGA
Flight info
| Callsign | NKS1455 |
|---|---|
| Flight time | 1h 49m |
| Altitude | 35000 |
| Route | FATHE4 VIYAP Q87 HURTS PROUD2 |
| Aircraft | A21N/M-SDE3FGHIRWY/LB1 |
Departure
| Time | 2026-04-24 01:20 |
|---|---|
| Airport | Orlando International Airport (KMCO) |
Arrival
| Time | 2026-04-24 03:09 |
|---|---|
| Airport | LaGuardia Airport (KLGA) |
| Time | Latitude | Longitude | Altitude | Speed | Heading |
|---|---|---|---|---|---|
| 2026-04-24 01:09 | 28.43352 | -81.31677 | 88 ft | 0 kts | 159° |
| 2026-04-24 01:16 | 28.43348 | -81.31675 | 87 ft | 1 kts | 158° |
| 2026-04-24 01:16 | 28.43302 | -81.31687 | 87 ft | 19 kts | 221° |
| 2026-04-24 01:16 | 28.43230 | -81.31815 | 87 ft | 18 kts | 223° |
| 2026-04-24 01:17 | 28.43098 | -81.31839 | 87 ft | 23 kts | 180° |
| 2026-04-24 01:17 | 28.42916 | -81.31838 | 87 ft | 26 kts | 179° |
| 2026-04-24 01:17 | 28.42708 | -81.31834 | 87 ft | 36 kts | 179° |
| 2026-04-24 01:17 | 28.42402 | -81.31830 | 88 ft | 50 kts | 179° |
| 2026-04-24 01:18 | 28.42053 | -81.31876 | 88 ft | 48 kts | 179° |
| 2026-04-24 01:18 | 28.41730 | -81.31883 | 87 ft | 44 kts | 185° |
| 2026-04-24 01:18 | 28.41541 | -81.31950 | 87 ft | 22 kts | 269° |
| 2026-04-24 01:18 | 28.41543 | -81.32125 | 88 ft | 21 kts | 270° |
| 2026-04-24 01:19 | 28.41636 | -81.32198 | 90 ft | 21 kts | 1° |
| 2026-04-24 01:19 | 28.42036 | -81.32193 | 91 ft | 93 kts | 360° |
| 2026-04-24 01:19 | 28.42925 | -81.32208 | 92 ft | 155 kts | 357° |
| 2026-04-24 01:19 | 28.44134 | -81.32243 | 307 ft | 184 kts | 358° |
| 2026-04-24 01:20 | 28.45357 | -81.32261 | 1054 ft | 175 kts | 8° |
| 2026-04-24 01:20 | 28.46583 | -81.32184 | 1688 ft | 179 kts | 7° |
| 2026-04-24 01:20 | 28.47840 | -81.32193 | 2329 ft | 180 kts | 2° |
| 2026-04-24 01:20 | 28.49054 | -81.32294 | 2885 ft | 176 kts | 357° |
| 2026-04-24 01:21 | 28.50261 | -81.32491 | 3364 ft | 173 kts | 353° |
| 2026-04-24 01:21 | 28.51458 | -81.32739 | 3730 ft | 177 kts | 360° |
| 2026-04-24 01:21 | 28.52679 | -81.32509 | 3977 ft | 184 kts | 20° |
| 2026-04-24 01:21 | 28.53958 | -81.32069 | 4246 ft | 198 kts | 18° |
| 2026-04-24 01:22 | 28.55340 | -81.31703 | 4520 ft | 212 kts | 13° |
| 2026-04-24 01:22 | 28.56854 | -81.31419 | 4801 ft | 227 kts | 9° |
| 2026-04-24 01:22 | 28.58493 | -81.31189 | 5012 ft | 247 kts | 7° |
| 2026-04-24 01:22 | 28.60271 | -81.30988 | 5326 ft | 263 kts | 6° |
| 2026-04-24 01:23 | 28.62131 | -81.30803 | 5783 ft | 274 kts | 5° |
| 2026-04-24 01:23 | 28.64045 | -81.30624 | 6475 ft | 276 kts | 4° |
| 2026-04-24 01:23 | 28.65958 | -81.30452 | 7165 ft | 277 kts | 4° |
| 2026-04-24 01:23 | 28.67894 | -81.30280 | 7806 ft | 281 kts | 4° |
| 2026-04-24 01:24 | 28.69850 | -81.30109 | 8397 ft | 285 kts | 5° |
| 2026-04-24 01:24 | 28.71850 | -81.29933 | 9026 ft | 288 kts | 5° |
| 2026-04-24 01:24 | 28.73866 | -81.29754 | 9657 ft | 290 kts | 5° |
| 2026-04-24 01:24 | 28.75896 | -81.29573 | 10255 ft | 293 kts | 5° |
| 2026-04-24 01:25 | 28.77983 | -81.29384 | 10584 ft | 306 kts | 5° |
| 2026-04-24 01:25 | 28.80174 | -81.29186 | 10852 ft | 321 kts | 5° |
| 2026-04-24 01:25 | 28.82449 | -81.28998 | 11106 ft | 335 kts | 3° |
| 2026-04-24 01:25 | 28.84834 | -81.28954 | 11371 ft | 348 kts | 359° |
| 2026-04-24 01:26 | 28.87260 | -81.29097 | 11837 ft | 353 kts | 356° |
| 2026-04-24 01:26 | 28.89716 | -81.29306 | 12463 ft | 353 kts | 355° |
| 2026-04-24 01:26 | 28.92193 | -81.29525 | 13032 ft | 355 kts | 355° |
| 2026-04-24 01:26 | 28.94668 | -81.29742 | 13563 ft | 358 kts | 356° |
| 2026-04-24 01:27 | 28.97155 | -81.29956 | 14091 ft | 360 kts | 355° |
| 2026-04-24 01:27 | 28.99692 | -81.30177 | 14578 ft | 363 kts | 355° |
| 2026-04-24 01:27 | 29.02212 | -81.30446 | 15048 ft | 366 kts | 354° |
| 2026-04-24 01:27 | 29.04762 | -81.30739 | 15505 ft | 369 kts | 354° |
| 2026-04-24 01:28 | 29.07359 | -81.31034 | 15964 ft | 372 kts | 353° |
| 2026-04-24 01:28 | 29.09952 | -81.31325 | 16427 ft | 375 kts | 354° |
| 2026-04-24 01:28 | 29.12548 | -81.31530 | 16862 ft | 378 kts | 356° |
| 2026-04-24 01:28 | 29.15202 | -81.31693 | 17290 ft | 380 kts | 356° |
| 2026-04-24 01:29 | 29.17855 | -81.31849 | 17703 ft | 383 kts | 356° |
| 2026-04-24 01:29 | 29.20525 | -81.32007 | 18127 ft | 385 kts | 355° |
| 2026-04-24 01:29 | 29.23220 | -81.32167 | 18553 ft | 387 kts | 355° |
| 2026-04-24 01:29 | 29.25932 | -81.32330 | 18954 ft | 390 kts | 355° |
| 2026-04-24 01:30 | 29.28645 | -81.32490 | 19372 ft | 392 kts | 355° |
| 2026-04-24 01:30 | 29.31412 | -81.32658 | 19730 ft | 394 kts | 355° |
| 2026-04-24 01:30 | 29.34183 | -81.32825 | 20097 ft | 397 kts | 355° |
| 2026-04-24 01:30 | 29.36933 | -81.32990 | 20459 ft | 399 kts | 355° |
| 2026-04-24 01:31 | 29.39718 | -81.33157 | 20827 ft | 401 kts | 355° |
| 2026-04-24 01:31 | 29.42581 | -81.33330 | 21184 ft | 404 kts | 355° |
| 2026-04-24 01:31 | 29.82957 | -81.35780 | 24728 ft | 408 kts | 355° |
| 2026-04-24 01:31 | 30.29795 | -81.38405 | 26819 ft | 414 kts | 356° |
| 2026-04-24 01:32 | 30.76746 | -81.41076 | 28788 ft | 420 kts | 357° |
| 2026-04-24 01:32 | 30.92954 | -81.41849 | 29420 ft | 424 kts | 357° |
| 2026-04-24 01:32 | 30.95943 | -81.42004 | 29535 ft | 429 kts | 357° |
| 2026-04-24 01:32 | 30.98913 | -81.42162 | 29645 ft | 433 kts | 357° |
| 2026-04-24 01:33 | 31.01994 | -81.42326 | 29752 ft | 437 kts | 357° |
| 2026-04-24 01:33 | 31.05089 | -81.42492 | 29855 ft | 441 kts | 357° |
| 2026-04-24 01:33 | 31.08193 | -81.42657 | 29954 ft | 445 kts | 357° |
| 2026-04-24 01:33 | 31.11298 | -81.42823 | 30057 ft | 449 kts | 357° |
| 2026-04-24 01:34 | 31.14454 | -81.42991 | 30234 ft | 450 kts | 357° |
| 2026-04-24 01:34 | 31.17565 | -81.43153 | 30503 ft | 449 kts | 358° |
| 2026-04-24 01:34 | 31.20741 | -81.43100 | 30809 ft | 448 kts | 3° |
| 2026-04-24 01:34 | 31.23841 | -81.42711 | 31104 ft | 447 kts | 8° |
| 2026-04-24 01:35 | 31.26888 | -81.41987 | 31395 ft | 446 kts | 14° |
| 2026-04-24 01:35 | 31.29847 | -81.40939 | 31676 ft | 445 kts | 19° |
| 2026-04-24 01:35 | 31.32736 | -81.39571 | 31944 ft | 444 kts | 23° |
| 2026-04-24 01:35 | 31.35565 | -81.38057 | 32210 ft | 443 kts | 24° |
| 2026-04-24 01:36 | 31.38361 | -81.36524 | 32480 ft | 442 kts | 24° |
| 2026-04-24 01:36 | 31.41144 | -81.34996 | 32735 ft | 441 kts | 24° |
| 2026-04-24 01:36 | 31.43930 | -81.33471 | 32976 ft | 441 kts | 24° |
| 2026-04-24 01:36 | 31.46727 | -81.31944 | 33212 ft | 440 kts | 24° |
| 2026-04-24 01:37 | 31.49471 | -81.30448 | 33423 ft | 440 kts | 24° |
| 2026-04-24 01:37 | 31.52285 | -81.28914 | 33611 ft | 440 kts | 24° |
| 2026-04-24 01:37 | 31.55066 | -81.27397 | 33816 ft | 441 kts | 24° |
| 2026-04-24 01:37 | 31.57838 | -81.25886 | 34025 ft | 441 kts | 24° |
| 2026-04-24 01:38 | 31.60612 | -81.24372 | 34207 ft | 441 kts | 24° |
| 2026-04-24 01:38 | 31.63403 | -81.22849 | 34384 ft | 442 kts | 24° |
| 2026-04-24 01:38 | 31.66219 | -81.21311 | 34566 ft | 443 kts | 24° |
| 2026-04-24 01:38 | 31.69008 | -81.19788 | 34743 ft | 443 kts | 24° |
| 2026-04-24 01:39 | 31.71785 | -81.18274 | 34913 ft | 443 kts | 24° |
| 2026-04-24 01:39 | 31.74606 | -81.16734 | 35047 ft | 445 kts | 24° |
| 2026-04-24 01:39 | 31.77399 | -81.15209 | 35046 ft | 445 kts | 24° |
| 2026-04-24 01:40 | 31.83024 | -81.12128 | 35054 ft | 444 kts | 24° |
| 2026-04-24 01:40 | 31.88611 | -81.09059 | 35052 ft | 444 kts | 24° |
| 2026-04-24 01:41 | 31.94209 | -81.05980 | 35051 ft | 444 kts | 24° |
| 2026-04-24 01:41 | 31.99837 | -81.02882 | 35054 ft | 444 kts | 24° |
| 2026-04-24 01:42 | 32.57820 | -80.70261 | 35129 ft | 443 kts | 24° |
| 2026-04-24 01:42 | 32.63408 | -80.67110 | 35063 ft | 442 kts | 24° |
| 2026-04-24 01:43 | 32.68956 | -80.63968 | 35054 ft | 442 kts | 24° |
| 2026-04-24 01:43 | 32.74542 | -80.60743 | 35053 ft | 442 kts | 24° |
| 2026-04-24 01:44 | 32.80060 | -80.57464 | 35054 ft | 443 kts | 24° |
| 2026-04-24 01:44 | 32.85571 | -80.54182 | 35056 ft | 443 kts | 24° |
| 2026-04-24 01:45 | 32.91090 | -80.50895 | 35054 ft | 443 kts | 24° |
| 2026-04-24 01:45 | 32.96592 | -80.47615 | 35053 ft | 442 kts | 24° |
| 2026-04-24 01:46 | 33.02113 | -80.44318 | 35057 ft | 441 kts | 24° |
| 2026-04-24 01:46 | 33.07633 | -80.41019 | 35050 ft | 442 kts | 24° |
| 2026-04-24 01:47 | 33.13162 | -80.37711 | 35046 ft | 442 kts | 24° |
| 2026-04-24 01:47 | 33.18718 | -80.34382 | 35045 ft | 443 kts | 25° |
| 2026-04-24 01:48 | 33.24280 | -80.31042 | 35043 ft | 443 kts | 25° |
| 2026-04-24 01:48 | 33.29766 | -80.27744 | 35040 ft | 442 kts | 25° |
| 2026-04-24 01:49 | 33.35260 | -80.24438 | 35036 ft | 441 kts | 25° |
| 2026-04-24 01:49 | 33.40796 | -80.21099 | 35033 ft | 441 kts | 25° |
| 2026-04-24 01:50 | 33.46317 | -80.17767 | 35030 ft | 441 kts | 25° |
| 2026-04-24 01:50 | 33.51790 | -80.14455 | 35035 ft | 442 kts | 25° |
| 2026-04-24 01:51 | 33.57314 | -80.11107 | 35033 ft | 442 kts | 25° |
| 2026-04-24 01:51 | 33.62803 | -80.07777 | 35029 ft | 441 kts | 25° |
| 2026-04-24 01:52 | 33.68306 | -80.04442 | 35028 ft | 441 kts | 25° |
| 2026-04-24 01:52 | 33.73772 | -80.01128 | 35026 ft | 442 kts | 25° |
| 2026-04-24 01:53 | 33.79269 | -79.97784 | 35025 ft | 442 kts | 25° |
| 2026-04-24 01:53 | 33.84722 | -79.94462 | 35021 ft | 442 kts | 25° |
| 2026-04-24 01:54 | 33.90222 | -79.91103 | 35022 ft | 441 kts | 25° |
| 2026-04-24 01:54 | 33.95669 | -79.87772 | 35017 ft | 441 kts | 25° |
| 2026-04-24 01:55 | 34.01164 | -79.84408 | 35011 ft | 442 kts | 25° |
| 2026-04-24 01:55 | 34.06647 | -79.81043 | 35012 ft | 442 kts | 25° |
| 2026-04-24 01:56 | 34.12120 | -79.77679 | 35012 ft | 442 kts | 25° |
| 2026-04-24 01:56 | 34.17630 | -79.74290 | 35015 ft | 441 kts | 25° |
| 2026-04-24 01:57 | 34.23145 | -79.70898 | 35011 ft | 441 kts | 25° |
| 2026-04-24 01:57 | 34.28633 | -79.67514 | 35016 ft | 441 kts | 25° |
| 2026-04-24 01:58 | 34.34106 | -79.64131 | 35014 ft | 441 kts | 25° |
| 2026-04-24 01:58 | 34.39574 | -79.60748 | 35012 ft | 441 kts | 25° |
| 2026-04-24 01:59 | 34.45043 | -79.57365 | 35011 ft | 441 kts | 25° |
| 2026-04-24 01:59 | 34.50516 | -79.53966 | 35009 ft | 440 kts | 25° |
| 2026-04-24 02:00 | 34.55937 | -79.50587 | 35002 ft | 441 kts | 25° |
| 2026-04-24 02:00 | 34.61326 | -79.46973 | 35001 ft | 441 kts | 27° |
| 2026-04-24 02:01 | 34.66671 | -79.43343 | 34998 ft | 441 kts | 26° |
| 2026-04-24 02:01 | 34.72019 | -79.39733 | 34997 ft | 441 kts | 26° |
| 2026-04-24 02:02 | 34.77388 | -79.36109 | 34993 ft | 441 kts | 26° |
| 2026-04-24 02:02 | 34.82743 | -79.32486 | 34996 ft | 440 kts | 27° |
| 2026-04-24 02:03 | 34.90798 | -79.27021 | 34982 ft | 441 kts | 27° |
| 2026-04-24 02:03 | 34.96166 | -79.23370 | 34974 ft | 441 kts | 27° |
| 2026-04-24 02:04 | 35.01534 | -79.19713 | 34974 ft | 441 kts | 27° |
| 2026-04-24 02:04 | 35.06911 | -79.16045 | 34975 ft | 441 kts | 27° |
| 2026-04-24 02:05 | 35.12305 | -79.12360 | 34976 ft | 441 kts | 27° |
| 2026-04-24 02:05 | 35.17773 | -79.08618 | 34975 ft | 441 kts | 27° |
| 2026-04-24 02:06 | 35.23106 | -79.04964 | 34974 ft | 441 kts | 27° |
| 2026-04-24 02:06 | 35.28450 | -79.01295 | 34974 ft | 441 kts | 27° |
| 2026-04-24 02:07 | 35.33802 | -78.97611 | 34974 ft | 440 kts | 27° |
| 2026-04-24 02:07 | 35.39140 | -78.93932 | 34976 ft | 440 kts | 26° |
| 2026-04-24 02:08 | 35.44487 | -78.90247 | 34974 ft | 440 kts | 26° |
| 2026-04-24 02:08 | 35.49819 | -78.86569 | 34976 ft | 440 kts | 26° |
| 2026-04-24 02:09 | 35.55148 | -78.82880 | 34976 ft | 440 kts | 26° |
| 2026-04-24 02:09 | 35.60468 | -78.79194 | 34972 ft | 440 kts | 26° |
| 2026-04-24 02:10 | 35.65801 | -78.75503 | 34970 ft | 440 kts | 26° |
| 2026-04-24 02:10 | 35.71119 | -78.71814 | 34970 ft | 440 kts | 26° |
| 2026-04-24 02:11 | 35.76434 | -78.68116 | 34970 ft | 440 kts | 26° |
| 2026-04-24 02:11 | 35.81771 | -78.64396 | 34969 ft | 440 kts | 26° |
| 2026-04-24 02:12 | 35.87107 | -78.60671 | 34964 ft | 439 kts | 26° |
| 2026-04-24 02:12 | 35.92394 | -78.56974 | 34966 ft | 439 kts | 26° |
| 2026-04-24 02:13 | 35.97734 | -78.53235 | 34969 ft | 439 kts | 26° |
| 2026-04-24 02:13 | 36.03041 | -78.49512 | 34973 ft | 439 kts | 26° |
| 2026-04-24 02:14 | 36.08336 | -78.45792 | 34973 ft | 440 kts | 26° |
| 2026-04-24 02:14 | 36.13692 | -78.42024 | 34970 ft | 440 kts | 26° |
| 2026-04-24 02:15 | 36.19057 | -78.38240 | 34964 ft | 440 kts | 26° |
| 2026-04-24 02:15 | 36.24360 | -78.34494 | 34964 ft | 439 kts | 26° |
| 2026-04-24 02:16 | 36.29682 | -78.30728 | 34963 ft | 440 kts | 26° |
| 2026-04-24 02:16 | 36.34969 | -78.26833 | 34959 ft | 441 kts | 30° |
| 2026-04-24 02:17 | 36.39916 | -78.22313 | 34953 ft | 444 kts | 36° |
| 2026-04-24 02:17 | 36.44510 | -78.17153 | 34951 ft | 447 kts | 40° |
| 2026-04-24 02:18 | 36.49005 | -78.11848 | 34952 ft | 447 kts | 40° |
| 2026-04-24 02:18 | 36.53530 | -78.06507 | 34958 ft | 446 kts | 40° |
| 2026-04-24 02:19 | 36.58028 | -78.01198 | 34967 ft | 446 kts | 40° |
| 2026-04-24 02:19 | 36.62531 | -77.95876 | 34976 ft | 447 kts | 39° |
| 2026-04-24 02:20 | 36.67041 | -77.90540 | 34974 ft | 447 kts | 39° |
| 2026-04-24 02:20 | 36.71551 | -77.85191 | 34974 ft | 447 kts | 39° |
| 2026-04-24 02:21 | 36.76053 | -77.79842 | 34970 ft | 447 kts | 39° |
| 2026-04-24 02:21 | 36.80568 | -77.74475 | 34960 ft | 446 kts | 39° |
| 2026-04-24 02:22 | 36.85052 | -77.69148 | 34960 ft | 446 kts | 39° |
| 2026-04-24 02:22 | 36.89534 | -77.63808 | 34954 ft | 444 kts | 39° |
| 2026-04-24 02:23 | 36.94004 | -77.58472 | 34953 ft | 445 kts | 39° |
| 2026-04-24 02:23 | 36.98469 | -77.53132 | 34946 ft | 446 kts | 39° |
| 2026-04-24 02:24 | 37.02914 | -77.47801 | 34952 ft | 446 kts | 39° |
| 2026-04-24 02:24 | 37.07407 | -77.42405 | 34946 ft | 446 kts | 39° |
| 2026-04-24 02:25 | 37.11879 | -77.37028 | 34953 ft | 446 kts | 38° |
| 2026-04-24 02:25 | 37.16333 | -77.31677 | 34948 ft | 445 kts | 39° |
| 2026-04-24 02:26 | 37.20840 | -77.26248 | 34949 ft | 446 kts | 39° |
| 2026-04-24 02:26 | 37.25288 | -77.20875 | 34949 ft | 445 kts | 39° |
| 2026-04-24 02:27 | 37.29733 | -77.15495 | 34943 ft | 445 kts | 39° |
| 2026-04-24 02:27 | 37.34203 | -77.10072 | 34944 ft | 446 kts | 39° |
| 2026-04-24 02:28 | 37.38643 | -77.04679 | 34938 ft | 446 kts | 39° |
| 2026-04-24 02:28 | 37.43149 | -76.99406 | 34944 ft | 442 kts | 35° |
| 2026-04-24 02:29 | 37.48024 | -76.94745 | 34943 ft | 438 kts | 29° |
| 2026-04-24 02:29 | 37.53221 | -76.90817 | 34945 ft | 434 kts | 23° |
| 2026-04-24 02:30 | 37.58567 | -76.87257 | 34944 ft | 434 kts | 22° |
| 2026-04-24 02:30 | 37.63893 | -76.83727 | 34941 ft | 434 kts | 22° |
| 2026-04-24 02:31 | 37.69228 | -76.80173 | 34942 ft | 434 kts | 22° |
| 2026-04-24 02:31 | 37.74544 | -76.76623 | 34936 ft | 433 kts | 22° |
| 2026-04-24 02:32 | 37.79869 | -76.73060 | 34939 ft | 433 kts | 22° |
| 2026-04-24 02:32 | 37.85172 | -76.69504 | 34937 ft | 433 kts | 22° |
| 2026-04-24 02:33 | 37.90533 | -76.65994 | 34936 ft | 432 kts | 21° |
| 2026-04-24 02:33 | 37.95915 | -76.62612 | 34932 ft | 432 kts | 21° |
| 2026-04-24 02:34 | 38.01310 | -76.59205 | 34933 ft | 432 kts | 21° |
| 2026-04-24 02:34 | 38.06661 | -76.55808 | 34933 ft | 431 kts | 21° |
| 2026-04-24 02:35 | 38.12042 | -76.52383 | 34931 ft | 431 kts | 21° |
| 2026-04-24 02:35 | 38.17368 | -76.48985 | 34934 ft | 431 kts | 21° |
| 2026-04-24 02:36 | 38.22755 | -76.45542 | 34933 ft | 430 kts | 21° |
| 2026-04-24 02:36 | 38.28060 | -76.41948 | 34931 ft | 433 kts | 25° |
| 2026-04-24 02:37 | 38.33091 | -76.37651 | 34931 ft | 438 kts | 30° |
| 2026-04-24 02:37 | 38.37947 | -76.32931 | 34928 ft | 439 kts | 32° |
| 2026-04-24 02:38 | 38.42775 | -76.28195 | 34926 ft | 439 kts | 31° |
| 2026-04-24 02:38 | 38.47605 | -76.23460 | 34923 ft | 439 kts | 31° |
| 2026-04-24 02:39 | 38.52455 | -76.18697 | 34929 ft | 439 kts | 31° |
| 2026-04-24 02:39 | 38.57276 | -76.13957 | 34923 ft | 439 kts | 31° |
| 2026-04-24 02:40 | 38.62152 | -76.09154 | 34926 ft | 439 kts | 31° |
| 2026-04-24 02:40 | 38.67046 | -76.04517 | 34926 ft | 439 kts | 30° |
| 2026-04-24 02:41 | 38.72030 | -75.99904 | 34922 ft | 447 kts | 30° |
| 2026-04-24 02:41 | 38.77097 | -75.95180 | 34915 ft | 453 kts | 30° |
| 2026-04-24 02:42 | 38.82195 | -75.90400 | 34914 ft | 458 kts | 30° |
| 2026-04-24 02:42 | 38.87343 | -75.85561 | 34912 ft | 461 kts | 30° |
| 2026-04-24 02:43 | 38.92548 | -75.80659 | 34931 ft | 464 kts | 30° |
| 2026-04-24 02:43 | 38.95139 | -75.78210 | 35086 ft | 461 kts | 30° |
| 2026-04-24 02:43 | 38.97646 | -75.75832 | 35040 ft | 444 kts | 30° |
| 2026-04-24 02:44 | 39.02587 | -75.71166 | 34926 ft | 441 kts | 29° |
| 2026-04-24 02:44 | 39.07574 | -75.66461 | 34915 ft | 449 kts | 30° |
| 2026-04-24 02:45 | 39.12664 | -75.61631 | 34919 ft | 456 kts | 30° |
| 2026-04-24 02:45 | 39.17788 | -75.56754 | 34923 ft | 459 kts | 30° |
| 2026-04-24 02:46 | 39.20314 | -75.54335 | 34916 ft | 442 kts | 30° |
| 2026-04-24 02:46 | 39.22776 | -75.51986 | 34924 ft | 439 kts | 28° |
| 2026-04-24 02:46 | 39.27819 | -75.47485 | 34925 ft | 446 kts | 27° |
| 2026-04-24 02:47 | 39.32968 | -75.42941 | 34926 ft | 450 kts | 27° |
| 2026-04-24 02:47 | 39.38099 | -75.38385 | 34928 ft | 450 kts | 27° |
| 2026-04-24 02:48 | 39.43245 | -75.33797 | 34923 ft | 450 kts | 28° |
| 2026-04-24 02:48 | 39.48423 | -75.29175 | 34938 ft | 450 kts | 28° |
| 2026-04-24 02:49 | 39.53556 | -75.24513 | 34938 ft | 452 kts | 29° |
| 2026-04-24 02:49 | 39.58620 | -75.19746 | 34933 ft | 451 kts | 29° |
| 2026-04-24 02:50 | 39.63693 | -75.14969 | 34935 ft | 451 kts | 29° |
| 2026-04-24 02:50 | 39.68785 | -75.10209 | 33888 ft | 458 kts | 28° |
| 2026-04-24 02:51 | 39.71411 | -75.07938 | 33086 ft | 454 kts | 26° |
| 2026-04-24 02:51 | 39.73983 | -75.05743 | 33374 ft | 422 kts | 26° |
| 2026-04-24 02:51 | 39.76402 | -75.03661 | 31472 ft | 443 kts | 26° |
| 2026-04-24 02:51 | 39.78994 | -75.01429 | 27986 ft | 487 kts | 28° |
| 2026-04-24 02:52 | 39.81675 | -74.98738 | 25733 ft | 494 kts | 33° |
| 2026-04-24 02:52 | 39.84186 | -74.95766 | 23968 ft | 495 kts | 39° |
| 2026-04-24 02:52 | 39.86492 | -74.92535 | 22138 ft | 494 kts | 42° |
| 2026-04-24 02:52 | 39.88658 | -74.89214 | 20916 ft | 479 kts | 43° |
| 2026-04-24 02:53 | 39.90720 | -74.85922 | 19831 ft | 463 kts | 44° |
| 2026-04-24 02:53 | 39.92772 | -74.82763 | 18801 ft | 445 kts | 41° |
| 2026-04-24 02:53 | 39.94820 | -74.79864 | 17647 ft | 434 kts | 40° |
| 2026-04-24 02:53 | 39.96849 | -74.76988 | 15928 ft | 437 kts | 40° |
| 2026-04-24 02:54 | 39.98879 | -74.74164 | 14461 ft | 428 kts | 40° |
| 2026-04-24 02:54 | 40.00873 | -74.71406 | 13657 ft | 405 kts | 40° |
| 2026-04-24 02:54 | 40.02755 | -74.68809 | 12784 ft | 387 kts | 39° |
| 2026-04-24 02:54 | 40.04582 | -74.66325 | 11945 ft | 372 kts | 39° |
| 2026-04-24 02:55 | 40.06340 | -74.63976 | 10996 ft | 362 kts | 38° |
| 2026-04-24 02:55 | 40.08102 | -74.61670 | 10029 ft | 355 kts | 38° |
| 2026-04-24 02:55 | 40.09832 | -74.59456 | 9077 ft | 349 kts | 37° |
| 2026-04-24 02:55 | 40.11568 | -74.57270 | 8307 ft | 337 kts | 38° |
| 2026-04-24 02:56 | 40.13173 | -74.55228 | 8196 ft | 308 kts | 38° |
| 2026-04-24 02:56 | 40.14628 | -74.53345 | 8030 ft | 286 kts | 38° |
| 2026-04-24 02:56 | 40.15974 | -74.51571 | 7868 ft | 266 kts | 37° |
| 2026-04-24 02:56 | 40.17224 | -74.49893 | 7710 ft | 248 kts | 38° |
| 2026-04-24 02:57 | 40.18405 | -74.48385 | 7559 ft | 227 kts | 30° |
| 2026-04-24 02:57 | 40.19626 | -74.47201 | 7409 ft | 209 kts | 25° |
| 2026-04-24 02:57 | 40.20793 | -74.46154 | 7158 ft | 202 kts | 25° |
| 2026-04-24 02:57 | 40.22031 | -74.45061 | 6843 ft | 238 kts | 26° |
| 2026-04-24 02:58 | 40.23481 | -74.43750 | 6604 ft | 262 kts | 29° |
| 2026-04-24 02:58 | 40.25005 | -74.42302 | 6497 ft | 274 kts | 30° |
| 2026-04-24 02:58 | 40.26562 | -74.40788 | 6365 ft | 276 kts | 30° |
| 2026-04-24 02:58 | 40.28075 | -74.39293 | 6237 ft | 276 kts | 32° |
| 2026-04-24 02:59 | 40.29564 | -74.37695 | 6123 ft | 277 kts | 35° |
| 2026-04-24 02:59 | 40.30992 | -74.35963 | 6008 ft | 277 kts | 38° |
| 2026-04-24 02:59 | 40.32383 | -74.34206 | 5998 ft | 277 kts | 38° |
| 2026-04-24 02:59 | 40.33775 | -74.32439 | 6003 ft | 292 kts | 39° |
| 2026-04-24 03:00 | 40.35330 | -74.30486 | 6003 ft | 322 kts | 39° |
| 2026-04-24 03:00 | 40.36961 | -74.28419 | 5996 ft | 330 kts | 39° |
| 2026-04-24 03:00 | 40.38621 | -74.26302 | 5986 ft | 331 kts | 39° |
| 2026-04-24 03:00 | 40.40279 | -74.24190 | 5966 ft | 331 kts | 39° |
| 2026-04-24 03:01 | 40.41919 | -74.22102 | 5959 ft | 331 kts | 39° |
| 2026-04-24 03:01 | 40.43580 | -74.19983 | 5935 ft | 331 kts | 39° |
| 2026-04-24 03:01 | 40.45229 | -74.17882 | 5961 ft | 331 kts | 39° |
| 2026-04-24 03:01 | 40.46890 | -74.15765 | 5981 ft | 332 kts | 39° |
| 2026-04-24 03:02 | 40.48534 | -74.13667 | 5966 ft | 331 kts | 39° |
| 2026-04-24 03:02 | 40.50198 | -74.11545 | 5989 ft | 332 kts | 39° |
| 2026-04-24 03:02 | 40.51911 | -74.09510 | 5992 ft | 330 kts | 33° |
| 2026-04-24 03:02 | 40.53772 | -74.07763 | 5997 ft | 326 kts | 28° |
| 2026-04-24 03:03 | 40.55638 | -74.06172 | 5984 ft | 314 kts | 27° |
| 2026-04-24 03:03 | 40.57403 | -74.04683 | 5984 ft | 285 kts | 26° |
| 2026-04-24 03:03 | 40.58917 | -74.03404 | 5976 ft | 267 kts | 26° |
| 2026-04-24 03:03 | 40.60469 | -74.02102 | 5991 ft | 266 kts | 26° |
| 2026-04-24 03:04 | 40.61998 | -74.00814 | 5991 ft | 265 kts | 26° |
| 2026-04-24 03:04 | 40.63533 | -73.99519 | 5989 ft | 263 kts | 26° |
| 2026-04-24 03:04 | 40.64903 | -73.98356 | 5968 ft | 244 kts | 26° |
| 2026-04-24 03:04 | 40.66095 | -73.97334 | 5977 ft | 234 kts | 26° |
| 2026-04-24 03:05 | 40.67337 | -73.96267 | 5987 ft | 228 kts | 25° |
| 2026-04-24 03:05 | 40.68481 | -73.95245 | 6170 ft | 223 kts | 28° |
| 2026-04-24 03:05 | 40.69427 | -73.94076 | 6202 ft | 215 kts | 40° |
| 2026-04-24 03:05 | 40.70143 | -73.92762 | 5602 ft | 223 kts | 47° |
| 2026-04-24 03:06 | 40.70779 | -73.91464 | 4903 ft | 232 kts | 53° |
| 2026-04-24 03:06 | 40.71270 | -73.89949 | 4270 ft | 236 kts | 64° |
| 2026-04-24 03:06 | 40.71604 | -73.88397 | 3614 ft | 238 kts | 70° |
| 2026-04-24 03:06 | 40.71872 | -73.86914 | 3030 ft | 235 kts | 72° |
| 2026-04-24 03:07 | 40.72191 | -73.85485 | 2631 ft | 220 kts | 64° |
| 2026-04-24 03:07 | 40.72659 | -73.84332 | 2580 ft | 192 kts | 49° |
| 2026-04-24 03:07 | 40.73311 | -73.83538 | 2391 ft | 174 kts | 28° |
| 2026-04-24 03:07 | 40.74167 | -73.83136 | 1716 ft | 183 kts | 4° |
| 2026-04-24 03:08 | 40.75100 | -73.83225 | 1192 ft | 185 kts | 347° |
| 2026-04-24 03:08 | 40.76593 | -73.84497 | 462 ft | 174 kts | 304° |
| 2026-04-24 03:08 | 40.77056 | -73.85362 | 194 ft | 164 kts | 295° |
| 2026-04-24 03:09 | 40.77470 | -73.86298 | 49 ft | 149 kts | 304° |
| 2026-04-24 03:09 | 40.77884 | -73.87146 | 11 ft | 124 kts | 303° |
| 2026-04-24 03:09 | 40.78119 | -73.87629 | 10 ft | 46 kts | 303° |
| 2026-04-24 03:09 | 40.78194 | -73.87794 | 9 ft | 18 kts | 285° |
| 2026-04-24 03:10 | 40.78162 | -73.87853 | 9 ft | 13 kts | 188° |
| 2026-04-24 03:10 | 40.78096 | -73.87808 | 11 ft | 11 kts | 124° |
| 2026-04-24 03:10 | 40.78060 | -73.87731 | 12 ft | 11 kts | 121° |
| 2026-04-24 03:10 | 40.78023 | -73.87653 | 12 ft | 11 kts | 123° |
| 2026-04-24 03:11 | 40.77989 | -73.87585 | 12 ft | 16 kts | 123° |
| 2026-04-24 03:11 | 40.77937 | -73.87559 | 12 ft | 16 kts | 211° |
| 2026-04-24 03:11 | 40.77868 | -73.87621 | 12 ft | 25 kts | 214° |
| 2026-04-24 03:11 | 40.77743 | -73.87729 | 14 ft | 38 kts | 212° |
| 2026-04-24 03:12 | 40.77654 | -73.87885 | 16 ft | 28 kts | 260° |
| 2026-04-24 03:12 | 40.77587 | -73.88009 | 16 ft | 26 kts | 214° |
| 2026-04-24 03:12 | 40.77490 | -73.88092 | 14 ft | 25 kts | 212° |
| 2026-04-24 03:12 | 40.77396 | -73.88169 | 14 ft | 21 kts | 212° |
| 2026-04-24 03:13 | 40.77356 | -73.88242 | 14 ft | 11 kts | 273° |
| 2026-04-24 03:13 | 40.77368 | -73.88306 | 13 ft | 4 kts | 285° |
| 2026-04-24 03:13 | 40.77372 | -73.88327 | 12 ft | 1 kts | 285° |
| 2026-04-24 03:13 | 40.77372 | -73.88328 | 12 ft | 0 kts | 285° |